sensor_id;sensor_type;location;lat;lon;timestamp;pressure;altitude;pressure_sealevel;temperature;humidity
71915;BME280;60387;49.994;14.660;2023-05-21T00:02:25;97867.66;;;19.92;51.86
71915;BME280;60387;49.994;14.660;2023-05-21T00:04:59;97869.63;;;19.91;51.19
71915;BME280;60387;49.994;14.660;2023-05-21T00:07:32;97869.16;;;19.89;51.13
71915;BME280;60387;49.994;14.660;2023-05-21T00:10:06;97871.22;;;19.92;51.13
71915;BME280;60387;49.994;14.660;2023-05-21T00:12:39;97870.41;;;19.92;51.75
71915;BME280;60387;49.994;14.660;2023-05-21T00:15:12;97860.03;;;19.85;50.97
71915;BME280;60387;49.994;14.660;2023-05-21T00:17:46;97852.44;;;19.79;51.30
71915;BME280;60387;49.994;14.660;2023-05-21T00:20:19;97847.28;;;19.77;52.25
71915;BME280;60387;49.994;14.660;2023-05-21T00:22:52;97841.59;;;19.71;52.09
71915;BME280;60387;49.994;14.660;2023-05-21T00:25:26;97844.09;;;19.76;52.22
71915;BME280;60387;49.994;14.660;2023-05-21T00:27:59;97836.84;;;19.68;52.70
71915;BME280;60387;49.994;14.660;2023-05-21T00:30:32;97847.03;;;19.67;52.48
71915;BME280;60387;49.994;14.660;2023-05-21T00:33:05;97849.00;;;19.67;51.80
71915;BME280;60387;49.994;14.660;2023-05-21T00:35:39;97848.63;;;19.68;52.86
71915;BME280;60387;49.994;14.660;2023-05-21T00:38:12;97839.94;;;19.66;52.20
71915;BME280;60387;49.994;14.660;2023-05-21T00:40:45;97838.25;;;19.62;52.82
71915;BME280;60387;49.994;14.660;2023-05-21T00:43:18;97842.16;;;19.61;52.49
71915;BME280;60387;49.994;14.660;2023-05-21T00:45:52;97836.66;;;19.61;51.69
71915;BME280;60387;49.994;14.660;2023-05-21T00:48:25;97848.56;;;19.65;51.26
71915;BME280;60387;49.994;14.660;2023-05-21T00:50:59;97837.56;;;19.65;51.40
71915;BME280;60387;49.994;14.660;2023-05-21T00:53:32;97839.50;;;19.64;50.87
71915;BME280;60387;49.994;14.660;2023-05-21T00:56:06;97838.34;;;19.65;51.22
71915;BME280;60387;49.994;14.660;2023-05-21T00:58:40;97845.34;;;19.63;51.02
71915;BME280;60387;49.994;14.660;2023-05-21T01:01:13;97844.66;;;19.66;50.77
71915;BME280;60387;49.994;14.660;2023-05-21T01:03:47;97832.31;;;19.60;50.59
71915;BME280;60387;49.994;14.660;2023-05-21T01:06:20;97834.72;;;19.61;50.77
71915;BME280;60387;49.994;14.660;2023-05-21T01:08:57;97829.06;;;19.54;50.38
71915;BME280;60387;49.994;14.660;2023-05-21T01:11:37;97828.25;;;19.54;50.35
71915;BME280;60387;49.994;14.660;2023-05-21T01:14:12;97826.13;;;19.47;50.21
71915;BME280;60387;49.994;14.660;2023-05-21T01:16:48;97813.09;;;19.29;50.16
71915;BME280;60387;49.994;14.660;2023-05-21T01:19:23;97810.63;;;19.24;50.16
71915;BME280;60387;49.994;14.660;2023-05-21T01:22:00;97828.00;;;19.28;50.22
71915;BME280;60387;49.994;14.660;2023-05-21T01:24:36;97833.41;;;19.24;50.12
71915;BME280;60387;49.994;14.660;2023-05-21T01:27:09;97815.91;;;19.17;50.36
71915;BME280;60387;49.994;14.660;2023-05-21T01:29:43;97826.00;;;19.13;50.17
71915;BME280;60387;49.994;14.660;2023-05-21T01:35:13;97824.25;;;19.05;50.25
71915;BME280;60387;49.994;14.660;2023-05-21T01:40:32;97827.97;;;18.97;50.49
71915;BME280;60387;49.994;14.660;2023-05-21T01:43:08;97822.28;;;18.90;50.39
71915;BME280;60387;49.994;14.660;2023-05-21T01:45:43;97817.41;;;18.83;50.51
71915;BME280;60387;49.994;14.660;2023-05-21T01:48:17;97818.09;;;18.80;50.65
71915;BME280;60387;49.994;14.660;2023-05-21T01:50:51;97823.28;;;18.70;50.63
71915;BME280;60387;49.994;14.660;2023-05-21T01:53:25;97818.50;;;18.67;50.73
71915;BME280;60387;49.994;14.660;2023-05-21T01:55:58;97822.75;;;18.64;50.65
71915;BME280;60387;49.994;14.660;2023-05-21T01:58:31;97824.22;;;18.62;50.98
71915;BME280;60387;49.994;14.660;2023-05-21T02:01:05;97819.34;;;18.55;50.86
71915;BME280;60387;49.994;14.660;2023-05-21T02:03:38;97823.25;;;18.54;50.84
71915;BME280;60387;49.994;14.660;2023-05-21T02:06:11;97815.63;;;18.48;50.31
71915;BME280;60387;49.994;14.660;2023-05-21T02:08:44;97819.09;;;18.45;50.64
71915;BME280;60387;49.994;14.660;2023-05-21T02:11:18;97821.34;;;18.43;50.40
71915;BME280;60387;49.994;14.660;2023-05-21T02:13:51;97821.72;;;18.41;50.60
71915;BME280;60387;49.994;14.660;2023-05-21T02:16:24;97808.25;;;18.36;50.64
71915;BME280;60387;49.994;14.660;2023-05-21T02:18:57;97810.44;;;18.31;50.37
71915;BME280;60387;49.994;14.660;2023-05-21T02:21:31;97813.06;;;18.27;50.75
71915;BME280;60387;49.994;14.660;2023-05-21T02:24:04;97815.78;;;18.27;50.62
71915;BME280;60387;49.994;14.660;2023-05-21T02:26:38;97815.69;;;18.24;50.50
71915;BME280;60387;49.994;14.660;2023-05-21T02:29:11;97811.34;;;18.23;50.94
71915;BME280;60387;49.994;14.660;2023-05-21T02:31:44;97821.88;;;18.21;50.63
71915;BME280;60387;49.994;14.660;2023-05-21T02:34:18;97818.22;;;18.17;50.73
71915;BME280;60387;49.994;14.660;2023-05-21T02:36:51;97816.19;;;18.14;50.89
71915;BME280;60387;49.994;14.660;2023-05-21T02:39:24;97811.03;;;18.12;51.53
71915;BME280;60387;49.994;14.660;2023-05-21T02:41:57;97819.97;;;18.09;51.14
71915;BME280;60387;49.994;14.660;2023-05-21T02:44:31;97814.72;;;18.04;51.85
71915;BME280;60387;49.994;14.660;2023-05-21T02:47:04;97813.81;;;18.00;51.29
71915;BME280;60387;49.994;14.660;2023-05-21T02:49:37;97808.69;;;17.99;50.92
71915;BME280;60387;49.994;14.660;2023-05-21T02:52:11;97815.66;;;17.96;50.83
71915;BME280;60387;49.994;14.660;2023-05-21T02:54:45;97803.78;;;17.92;50.78
71915;BME280;60387;49.994;14.660;2023-05-21T02:57:19;97799.47;;;17.91;50.65
71915;BME280;60387;49.994;14.660;2023-05-21T02:59:52;97807.69;;;17.91;50.96
71915;BME280;60387;49.994;14.660;2023-05-21T03:02:25;97799.69;;;17.86;50.92
71915;BME280;60387;49.994;14.660;2023-05-21T03:04:59;97794.09;;;17.83;51.08
71915;BME280;60387;49.994;14.660;2023-05-21T03:07:32;97790.03;;;17.77;50.97
71915;BME280;60387;49.994;14.660;2023-05-21T03:10:05;97791.94;;;17.76;51.12
71915;BME280;60387;49.994;14.660;2023-05-21T03:12:39;97811.56;;;17.78;50.91
71915;BME280;60387;49.994;14.660;2023-05-21T03:15:12;97801.75;;;17.77;50.82
71915;BME280;60387;49.994;14.660;2023-05-21T03:17:46;97807.56;;;17.76;50.75
71915;BME280;60387;49.994;14.660;2023-05-21T03:20:19;97796.97;;;17.74;50.81
71915;BME280;60387;49.994;14.660;2023-05-21T03:22:52;97802.78;;;17.73;51.05
71915;BME280;60387;49.994;14.660;2023-05-21T03:25:25;97801.66;;;17.74;51.14
71915;BME280;60387;49.994;14.660;2023-05-21T03:27:59;97805.53;;;17.73;50.74
71915;BME280;60387;49.994;14.660;2023-05-21T03:30:32;97800.16;;;17.76;50.93
71915;BME280;60387;49.994;14.660;2023-05-21T03:33:05;97794.78;;;17.80;51.39
71915;BME280;60387;49.994;14.660;2023-05-21T03:35:39;97794.78;;;17.80;51.07
71915;BME280;60387;49.994;14.660;2023-05-21T03:38:12;97788.06;;;17.89;50.76
71915;BME280;60387;49.994;14.660;2023-05-21T03:40:45;97790.31;;;17.99;51.29
71915;BME280;60387;49.994;14.660;2023-05-21T03:43:18;97791.75;;;18.09;51.00
71915;BME280;60387;49.994;14.660;2023-05-21T03:45:53;97794.47;;;18.21;50.91
71915;BME280;60387;49.994;14.660;2023-05-21T03:48:27;97793.59;;;18.44;50.80
71915;BME280;60387;49.994;14.660;2023-05-21T03:51:00;97798.97;;;18.68;50.72
71915;BME280;60387;49.994;14.660;2023-05-21T03:53:34;97803.69;;;18.99;50.45
71915;BME280;60387;49.994;14.660;2023-05-21T03:56:07;97785.19;;;19.27;50.17
71915;BME280;60387;49.994;14.660;2023-05-21T03:58:40;97799.13;;;19.68;49.91
71915;BME280;60387;49.994;14.660;2023-05-21T04:01:13;97800.22;;;19.98;49.90
71915;BME280;60387;49.994;14.660;2023-05-21T04:03:47;97802.66;;;20.18;49.48
71915;BME280;60387;49.994;14.660;2023-05-21T04:06:20;97796.75;;;20.35;49.41
71915;BME280;60387;49.994;14.660;2023-05-21T04:08:53;97804.38;;;20.64;49.34
71915;BME280;60387;49.994;14.660;2023-05-21T04:11:27;97804.22;;;20.95;49.02
71915;BME280;60387;49.994;14.660;2023-05-21T04:14:00;97804.16;;;21.37;48.49
71915;BME280;60387;49.994;14.660;2023-05-21T04:16:33;97803.97;;;21.71;48.42
71915;BME280;60387;49.994;14.660;2023-05-21T04:19:06;97807.53;;;22.01;47.79
71915;BME280;60387;49.994;14.660;2023-05-21T04:21:40;97805.41;;;22.17;47.93
71915;BME280;60387;49.994;14.660;2023-05-21T04:24:13;97807.75;;;22.15;47.80
71915;BME280;60387;49.994;14.660;2023-05-21T04:26:46;97805.53;;;21.98;47.32
71915;BME280;60387;49.994;14.660;2023-05-21T04:29:20;97810.16;;;21.91;47.79
71915;BME280;60387;49.994;14.660;2023-05-21T04:31:53;97802.81;;;22.02;47.80
71915;BME280;60387;49.994;14.660;2023-05-21T04:34:26;97804.31;;;22.25;48.18
71915;BME280;60387;49.994;14.660;2023-05-21T04:37:00;97809.81;;;22.51;48.64
71915;BME280;60387;49.994;14.660;2023-05-21T04:39:33;97804.19;;;22.77;48.29
71915;BME280;60387;49.994;14.660;2023-05-21T04:42:06;97804.06;;;23.03;47.73
71915;BME280;60387;49.994;14.660;2023-05-21T04:44:40;97815.16;;;23.43;47.44
71915;BME280;60387;49.994;14.660;2023-05-21T04:47:13;97811.88;;;23.77;47.57
71915;BME280;60387;49.994;14.660;2023-05-21T04:49:46;97814.47;;;24.10;47.32
71915;BME280;60387;49.994;14.660;2023-05-21T04:52:20;97811.06;;;24.38;46.82
71915;BME280;60387;49.994;14.660;2023-05-21T04:54:53;97807.63;;;24.58;46.53
71915;BME280;60387;49.994;14.660;2023-05-21T04:57:26;97815.63;;;24.81;46.38
71915;BME280;60387;49.994;14.660;2023-05-21T05:00:00;97809.72;;;24.93;46.20
71915;BME280;60387;49.994;14.660;2023-05-21T05:02:33;97812.53;;;25.10;46.15
71915;BME280;60387;49.994;14.660;2023-05-21T05:05:07;97815.75;;;25.30;46.14
71915;BME280;60387;49.994;14.660;2023-05-21T05:07:40;97808.22;;;25.44;45.92
71915;BME280;60387;49.994;14.660;2023-05-21T05:10:13;97816.97;;;25.60;45.91
71915;BME280;60387;49.994;14.660;2023-05-21T05:12:47;97818.94;;;25.81;45.75
71915;BME280;60387;49.994;14.660;2023-05-21T05:15:20;97821.69;;;25.98;45.68
71915;BME280;60387;49.994;14.660;2023-05-21T05:17:53;97825.66;;;26.18;45.23
71915;BME280;60387;49.994;14.660;2023-05-21T05:20:27;97825.59;;;26.32;44.66
71915;BME280;60387;49.994;14.660;2023-05-21T05:23:00;97825.94;;;26.45;44.90
71915;BME280;60387;49.994;14.660;2023-05-21T05:25:33;97817.56;;;26.69;45.15
71915;BME280;60387;49.994;14.660;2023-05-21T05:28:07;97828.19;;;26.88;44.53
71915;BME280;60387;49.994;14.660;2023-05-21T05:30:40;97823.72;;;27.05;44.62
71915;BME280;60387;49.994;14.660;2023-05-21T05:33:13;97816.16;;;27.16;44.50
71915;BME280;60387;49.994;14.660;2023-05-21T05:35:46;97828.66;;;27.48;44.25
71915;BME280;60387;49.994;14.660;2023-05-21T05:38:20;97825.69;;;27.69;43.82
71915;BME280;60387;49.994;14.660;2023-05-21T05:40:53;97829.91;;;27.91;42.38
71915;BME280;60387;49.994;14.660;2023-05-21T05:43:26;97814.16;;;28.14;43.10
71915;BME280;60387;49.994;14.660;2023-05-21T05:46:00;97820.31;;;28.36;42.30
71915;BME280;60387;49.994;14.660;2023-05-21T05:48:33;97825.22;;;28.58;42.67
71915;BME280;60387;49.994;14.660;2023-05-21T05:51:06;97823.81;;;28.77;41.16
71915;BME280;60387;49.994;14.660;2023-05-21T05:53:39;97827.28;;;28.84;40.74
71915;BME280;60387;49.994;14.660;2023-05-21T05:56:13;97824.00;;;28.96;40.26
71915;BME280;60387;49.994;14.660;2023-05-21T05:58:46;97836.09;;;29.13;41.03
71915;BME280;60387;49.994;14.660;2023-05-21T06:01:19;97833.44;;;29.32;41.38
71915;BME280;60387;49.994;14.660;2023-05-21T06:03:52;97824.66;;;29.60;40.95
71915;BME280;60387;49.994;14.660;2023-05-21T06:06:26;97823.44;;;29.84;40.47
71915;BME280;60387;49.994;14.660;2023-05-21T06:08:59;97832.13;;;29.90;40.31
71915;BME280;60387;49.994;14.660;2023-05-21T06:11:32;97836.78;;;30.00;40.55
71915;BME280;60387;49.994;14.660;2023-05-21T06:14:05;97828.94;;;30.14;40.86
71915;BME280;60387;49.994;14.660;2023-05-21T06:16:39;97830.50;;;30.38;39.56
71915;BME280;60387;49.994;14.660;2023-05-21T06:19:12;97825.28;;;30.60;38.48
71915;BME280;60387;49.994;14.660;2023-05-21T06:21:45;97828.16;;;30.76;38.11
71915;BME280;60387;49.994;14.660;2023-05-21T06:24:19;97836.53;;;30.95;36.26
71915;BME280;60387;49.994;14.660;2023-05-21T06:26:52;97829.22;;;31.01;33.15
71915;BME280;60387;49.994;14.660;2023-05-21T06:29:26;97829.66;;;30.80;32.88
71915;BME280;60387;49.994;14.660;2023-05-21T06:31:59;97828.25;;;30.72;34.69
71915;BME280;60387;49.994;14.660;2023-05-21T06:34:33;97825.94;;;30.67;34.80
71915;BME280;60387;49.994;14.660;2023-05-21T06:37:06;97820.69;;;30.69;33.65
71915;BME280;60387;49.994;14.660;2023-05-21T06:39:39;97816.91;;;30.79;35.26
71915;BME280;60387;49.994;14.660;2023-05-21T06:42:12;97815.59;;;30.84;33.47
71915;BME280;60387;49.994;14.660;2023-05-21T06:44:46;97807.28;;;30.80;31.11
71915;BME280;60387;49.994;14.660;2023-05-21T06:47:19;97803.81;;;30.53;31.19
71915;BME280;60387;49.994;14.660;2023-05-21T06:49:53;97813.28;;;30.40;33.37
71915;BME280;60387;49.994;14.660;2023-05-21T06:52:26;97808.91;;;30.39;33.23
71915;BME280;60387;49.994;14.660;2023-05-21T06:54:59;97804.34;;;30.48;33.53
71915;BME280;60387;49.994;14.660;2023-05-21T06:57:33;97813.03;;;30.73;32.69
71915;BME280;60387;49.994;14.660;2023-05-21T07:00:06;97811.44;;;30.92;32.90
71915;BME280;60387;49.994;14.660;2023-05-21T07:02:40;97809.91;;;31.07;32.62
71915;BME280;60387;49.994;14.660;2023-05-21T07:05:13;97820.09;;;31.17;31.30
71915;BME280;60387;49.994;14.660;2023-05-21T07:07:46;97821.53;;;31.24;30.05
71915;BME280;60387;49.994;14.660;2023-05-21T07:10:19;97815.91;;;31.24;30.44
71915;BME280;60387;49.994;14.660;2023-05-21T07:12:53;97817.88;;;31.27;30.27
71915;BME280;60387;49.994;14.660;2023-05-21T07:15:26;97813.38;;;31.30;31.53
71915;BME280;60387;49.994;14.660;2023-05-21T07:17:59;97813.06;;;31.44;31.39
71915;BME280;60387;49.994;14.660;2023-05-21T07:20:33;97822.53;;;31.50;29.63
71915;BME280;60387;49.994;14.660;2023-05-21T07:23:06;97810.53;;;31.49;30.93
71915;BME280;60387;49.994;14.660;2023-05-21T07:25:39;97812.91;;;31.51;30.36
71915;BME280;60387;49.994;14.660;2023-05-21T07:28:13;97812.56;;;31.49;30.41
71915;BME280;60387;49.994;14.660;2023-05-21T07:30:46;97818.50;;;31.51;30.36
71915;BME280;60387;49.994;14.660;2023-05-21T07:33:19;97826.91;;;31.51;29.42
71915;BME280;60387;49.994;14.660;2023-05-21T07:35:52;97822.47;;;31.53;29.87
71915;BME280;60387;49.994;14.660;2023-05-21T07:38:26;97825.53;;;31.59;30.83
71915;BME280;60387;49.994;14.660;2023-05-21T07:40:59;97820.47;;;31.70;30.07
71915;BME280;60387;49.994;14.660;2023-05-21T07:43:32;97813.97;;;31.73;30.38
71915;BME280;60387;49.994;14.660;2023-05-21T07:46:06;97818.66;;;31.79;29.97
71915;BME280;60387;49.994;14.660;2023-05-21T07:48:39;97818.25;;;31.93;30.30
71915;BME280;60387;49.994;14.660;2023-05-21T07:51:13;97828.16;;;32.14;29.70
71915;BME280;60387;49.994;14.660;2023-05-21T07:53:46;97822.69;;;32.39;29.59
71915;BME280;60387;49.994;14.660;2023-05-21T07:56:19;97818.06;;;32.61;29.34
71915;BME280;60387;49.994;14.660;2023-05-21T07:58:53;97823.88;;;32.54;28.57
71915;BME280;60387;49.994;14.660;2023-05-21T08:01:26;97819.84;;;32.55;28.78
71915;BME280;60387;49.994;14.660;2023-05-21T08:04:00;97823.53;;;32.52;28.93
71915;BME280;60387;49.994;14.660;2023-05-21T08:06:33;97822.31;;;32.53;28.31
71915;BME280;60387;49.994;14.660;2023-05-21T08:09:06;97825.88;;;32.53;28.32
71915;BME280;60387;49.994;14.660;2023-05-21T08:11:40;97820.41;;;32.62;28.14
71915;BME280;60387;49.994;14.660;2023-05-21T08:14:14;97827.81;;;32.72;28.37
71915;BME280;60387;49.994;14.660;2023-05-21T08:16:47;97829.66;;;32.91;27.77
71915;BME280;60387;49.994;14.660;2023-05-21T08:19:20;97825.97;;;33.07;27.54
71915;BME280;60387;49.994;14.660;2023-05-21T08:21:53;97819.84;;;33.24;28.10
71915;BME280;60387;49.994;14.660;2023-05-21T08:24:27;97812.88;;;33.54;27.99
71915;BME280;60387;49.994;14.660;2023-05-21T08:27:00;97826.25;;;33.62;27.43
71915;BME280;60387;49.994;14.660;2023-05-21T08:29:33;97816.34;;;33.70;27.79
71915;BME280;60387;49.994;14.660;2023-05-21T08:32:06;97813.97;;;33.94;28.63
71915;BME280;60387;49.994;14.660;2023-05-21T08:34:40;97810.88;;;34.26;27.87
71915;BME280;60387;49.994;14.660;2023-05-21T08:37:13;97813.59;;;34.29;27.59
71915;BME280;60387;49.994;14.660;2023-05-21T08:39:46;97815.84;;;34.22;25.34
71915;BME280;60387;49.994;14.660;2023-05-21T08:42:38;97809.44;;;34.09;26.49
71915;BME280;60387;49.994;14.660;2023-05-21T08:45:13;97811.34;;;34.12;25.81
71915;BME280;60387;49.994;14.660;2023-05-21T08:47:46;97811.09;;;34.19;25.95
71915;BME280;60387;49.994;14.660;2023-05-21T08:50:20;97813.59;;;34.17;25.80
71915;BME280;60387;49.994;14.660;2023-05-21T08:52:54;97754.44;;;33.74;25.86
71915;BME280;60387;49.994;14.660;2023-05-21T08:55:28;97800.63;;;33.85;25.89
71915;BME280;60387;49.994;14.660;2023-05-21T08:58:03;97800.06;;;33.78;26.87
71915;BME280;60387;49.994;14.660;2023-05-21T09:00:36;97809.91;;;33.95;26.30
71915;BME280;60387;49.994;14.660;2023-05-21T09:03:10;97804.38;;;34.04;25.97
71915;BME280;60387;49.994;14.660;2023-05-21T09:05:44;97810.09;;;34.25;25.54
71915;BME280;60387;49.994;14.660;2023-05-21T09:08:23;97794.84;;;34.48;25.25
71915;BME280;60387;49.994;14.660;2023-05-21T09:11:00;97806.28;;;34.53;24.79
71915;BME280;60387;49.994;14.660;2023-05-21T09:13:36;97794.41;;;34.58;24.64
71915;BME280;60387;49.994;14.660;2023-05-21T09:16:10;97809.25;;;34.93;25.05
71915;BME280;60387;49.994;14.660;2023-05-21T09:18:44;97798.41;;;35.13;24.67
71915;BME280;60387;49.994;14.660;2023-05-21T09:21:29;97801.03;;;35.28;24.37
71915;BME280;60387;49.994;14.660;2023-05-21T09:24:03;97799.22;;;35.43;24.50
71915;BME280;60387;49.994;14.660;2023-05-21T09:26:36;97805.69;;;35.22;25.74
71915;BME280;60387;49.994;14.660;2023-05-21T09:29:11;97801.44;;;34.97;26.76
71915;BME280;60387;49.994;14.660;2023-05-21T09:31:45;97806.41;;;34.50;27.18
71915;BME280;60387;49.994;14.660;2023-05-21T09:34:18;97804.28;;;33.95;27.68
71915;BME280;60387;49.994;14.660;2023-05-21T09:36:55;97812.19;;;33.37;28.38
71915;BME280;60387;49.994;14.660;2023-05-21T09:39:29;97802.25;;;32.95;29.30
71915;BME280;60387;49.994;14.660;2023-05-21T09:42:02;97804.97;;;32.70;29.49
71915;BME280;60387;49.994;14.660;2023-05-21T09:44:36;97799.16;;;32.49;30.14
71915;BME280;60387;49.994;14.660;2023-05-21T09:47:09;97800.28;;;32.23;30.07
71915;BME280;60387;49.994;14.660;2023-05-21T09:49:42;97798.41;;;31.88;31.28
71915;BME280;60387;49.994;14.660;2023-05-21T09:52:25;97802.22;;;31.62;31.27
71915;BME280;60387;49.994;14.660;2023-05-21T09:54:58;97801.28;;;31.68;31.11
71915;BME280;60387;49.994;14.660;2023-05-21T09:57:39;97787.16;;;31.56;31.13
71915;BME280;60387;49.994;14.660;2023-05-21T10:00:23;97790.94;;;31.49;30.36
71915;BME280;60387;49.994;14.660;2023-05-21T10:02:59;97802.66;;;31.44;31.33
71915;BME280;60387;49.994;14.660;2023-05-21T10:05:33;97800.47;;;31.36;31.51
71915;BME280;60387;49.994;14.660;2023-05-21T10:08:08;97802.19;;;31.30;31.82
71915;BME280;60387;49.994;14.660;2023-05-21T10:10:43;97789.09;;;31.43;31.38
71915;BME280;60387;49.994;14.660;2023-05-21T10:13:20;97786.75;;;31.73;31.81
71915;BME280;60387;49.994;14.660;2023-05-21T10:16:00;97784.56;;;31.81;30.48
71915;BME280;60387;49.994;14.660;2023-05-21T10:18:33;97780.19;;;31.80;30.88
71915;BME280;60387;49.994;14.660;2023-05-21T10:21:08;97786.25;;;31.78;31.18
71915;BME280;60387;49.994;14.660;2023-05-21T10:23:43;97785.63;;;31.87;30.47
71915;BME280;60387;49.994;14.660;2023-05-21T10:26:20;97776.47;;;31.99;30.84
71915;BME280;60387;49.994;14.660;2023-05-21T10:28:55;97787.53;;;31.90;30.53
71915;BME280;60387;49.994;14.660;2023-05-21T10:31:29;97770.63;;;31.77;30.54
71915;BME280;60387;49.994;14.660;2023-05-21T10:34:03;97768.69;;;31.58;31.67
71915;BME280;60387;49.994;14.660;2023-05-21T10:36:37;97764.94;;;31.33;31.82
71915;BME280;60387;49.994;14.660;2023-05-21T10:39:11;97768.19;;;31.12;32.15
71915;BME280;60387;49.994;14.660;2023-05-21T10:42:04;97755.84;;;30.94;32.05
71915;BME280;60387;49.994;14.660;2023-05-21T10:47:57;97760.88;;;30.83;32.66
71915;BME280;60387;49.994;14.660;2023-05-21T10:53:50;97749.81;;;31.11;31.66
71915;BME280;60387;49.994;14.660;2023-05-21T10:59:47;97758.22;;;31.62;30.94
71915;BME280;60387;49.994;14.660;2023-05-21T11:02:25;97754.63;;;31.78;31.27
71915;BME280;60387;49.994;14.660;2023-05-21T11:04:59;97763.38;;;31.80;32.00
71915;BME280;60387;49.994;14.660;2023-05-21T11:08:05;97755.13;;;31.89;31.37
71915;BME280;60387;49.994;14.660;2023-05-21T11:10:56;97768.88;;;31.83;31.29
71915;BME280;60387;49.994;14.660;2023-05-21T11:13:46;97750.56;;;31.95;30.85
71915;BME280;60387;49.994;14.660;2023-05-21T11:16:22;97747.97;;;32.32;30.65
71915;BME280;60387;49.994;14.660;2023-05-21T11:18:55;97746.78;;;32.87;29.91
71915;BME280;60387;49.994;14.660;2023-05-21T11:21:30;97754.34;;;33.27;28.23
71915;BME280;60387;49.994;14.660;2023-05-21T11:24:04;97752.19;;;33.44;29.04
71915;BME280;60387;49.994;14.660;2023-05-21T11:29:30;97750.59;;;33.05;25.08
71915;BME280;60387;49.994;14.660;2023-05-21T11:32:04;97745.09;;;33.02;25.62
71915;BME280;60387;49.994;14.660;2023-05-21T11:39:49;97742.41;;;33.11;26.14
71915;BME280;60387;49.994;14.660;2023-05-21T11:42:30;97710.50;;;32.92;25.58
71915;BME280;60387;49.994;14.660;2023-05-21T11:45:04;97747.94;;;33.27;25.85
71915;BME280;60387;49.994;14.660;2023-05-21T11:47:38;97744.34;;;33.39;25.04
71915;BME280;60387;49.994;14.660;2023-05-21T11:50:13;97737.13;;;33.63;24.94
71915;BME280;60387;49.994;14.660;2023-05-21T11:52:48;97725.38;;;33.89;24.74
71915;BME280;60387;49.994;14.660;2023-05-21T11:55:22;97717.38;;;34.00;24.31
71915;BME280;60387;49.994;14.660;2023-05-21T11:57:57;97732.28;;;34.10;23.96
71915;BME280;60387;49.994;14.660;2023-05-21T12:00:37;97723.00;;;34.22;23.81
71915;BME280;60387;49.994;14.660;2023-05-21T12:03:12;97728.38;;;34.29;24.47
71915;BME280;60387;49.994;14.660;2023-05-21T12:05:47;97738.06;;;34.28;24.16
71915;BME280;60387;49.994;14.660;2023-05-21T12:08:23;97728.72;;;34.31;24.54
71915;BME280;60387;49.994;14.660;2023-05-21T12:10:58;97718.78;;;34.39;24.14
71915;BME280;60387;49.994;14.660;2023-05-21T12:13:31;97722.44;;;34.48;25.28
71915;BME280;60387;49.994;14.660;2023-05-21T12:16:05;97725.38;;;34.66;22.36
71915;BME280;60387;49.994;14.660;2023-05-21T12:18:38;97718.28;;;34.83;22.49
71915;BME280;60387;49.994;14.660;2023-05-21T12:21:11;97715.59;;;35.10;22.46
71915;BME280;60387;49.994;14.660;2023-05-21T12:23:45;97715.63;;;35.49;21.43
71915;BME280;60387;49.994;14.660;2023-05-21T12:26:18;97710.38;;;35.69;21.11
71915;BME280;60387;49.994;14.660;2023-05-21T12:28:55;97727.75;;;35.68;19.95
71915;BME280;60387;49.994;14.660;2023-05-21T12:31:28;97730.28;;;35.27;19.81
71915;BME280;60387;49.994;14.660;2023-05-21T12:34:02;97724.47;;;34.91;19.62
71915;BME280;60387;49.994;14.660;2023-05-21T12:36:38;97722.22;;;34.64;20.28
71915;BME280;60387;49.994;14.660;2023-05-21T12:39:11;97711.91;;;34.61;20.81
71915;BME280;60387;49.994;14.660;2023-05-21T12:41:44;97707.56;;;34.69;20.69
71915;BME280;60387;49.994;14.660;2023-05-21T12:44:18;97724.06;;;34.80;21.01
71915;BME280;60387;49.994;14.660;2023-05-21T12:46:51;97709.44;;;34.94;20.66
71915;BME280;60387;49.994;14.660;2023-05-21T12:52:10;97703.63;;;34.88;21.54
71915;BME280;60387;49.994;14.660;2023-05-21T12:54:47;97686.63;;;35.01;20.96
71915;BME280;60387;49.994;14.660;2023-05-21T12:57:34;97708.56;;;35.14;21.68
71915;BME280;60387;49.994;14.660;2023-05-21T13:00:08;97696.09;;;35.16;21.35
71915;BME280;60387;49.994;14.660;2023-05-21T13:02:42;97696.22;;;35.12;21.36
71915;BME280;60387;49.994;14.660;2023-05-21T13:05:16;97686.22;;;35.11;21.24
71915;BME280;60387;49.994;14.660;2023-05-21T13:07:50;97689.44;;;35.01;20.58
71915;BME280;60387;49.994;14.660;2023-05-21T13:10:24;97688.13;;;34.84;21.56
71915;BME280;60387;49.994;14.660;2023-05-21T13:12:57;97689.53;;;34.58;21.94
71915;BME280;60387;49.994;14.660;2023-05-21T13:15:30;97696.47;;;34.23;20.69
71915;BME280;60387;49.994;14.660;2023-05-21T13:18:03;97683.28;;;34.20;21.80
71915;BME280;60387;49.994;14.660;2023-05-21T13:20:37;97686.19;;;34.29;22.22
71915;BME280;60387;49.994;14.660;2023-05-21T13:23:10;97692.78;;;34.56;21.81
71915;BME280;60387;49.994;14.660;2023-05-21T13:25:44;97669.31;;;34.81;20.85
71915;BME280;60387;49.994;14.660;2023-05-21T13:28:17;97687.72;;;34.94;20.50
71915;BME280;60387;49.994;14.660;2023-05-21T13:30:50;97685.38;;;35.02;21.37
71915;BME280;60387;49.994;14.660;2023-05-21T13:33:23;97669.78;;;35.10;21.72
71915;BME280;60387;49.994;14.660;2023-05-21T13:35:57;97654.19;;;35.27;21.74
71915;BME280;60387;49.994;14.660;2023-05-21T13:38:30;97669.03;;;35.66;20.95
71915;BME280;60387;49.994;14.660;2023-05-21T13:41:03;97670.75;;;35.82;20.45
71915;BME280;60387;49.994;14.660;2023-05-21T13:43:36;97677.97;;;35.74;19.35
71915;BME280;60387;49.994;14.660;2023-05-21T13:46:10;97667.66;;;35.31;18.94
71915;BME280;60387;49.994;14.660;2023-05-21T13:48:43;97671.59;;;34.95;20.58
71915;BME280;60387;49.994;14.660;2023-05-21T13:51:16;97675.44;;;34.58;19.90
71915;BME280;60387;49.994;14.660;2023-05-21T13:53:50;97667.03;;;34.36;19.79